createdAt,value
2022-08-07T00:02:35.272Z,100169.28
2022-08-07T00:04:46.020Z,100171.19
2022-08-07T00:07:50.671Z,100173.84
2022-08-07T00:11:06.452Z,100183.31
2022-08-07T00:14:09.041Z,100186.34
2022-08-07T00:17:13.968Z,100183.00
2022-08-07T00:20:29.725Z,100177.59
2022-08-07T00:23:40.227Z,100174.66
2022-08-07T00:26:58.609Z,100174.91
2022-08-07T00:30:05.244Z,100181.06
2022-08-07T00:33:29.986Z,100175.69
2022-08-07T00:36:43.258Z,100176.75
2022-08-07T00:39:54.479Z,100180.00
2022-08-07T00:42:58.006Z,100184.66
2022-08-07T00:46:03.704Z,100181.66
2022-08-07T00:49:07.351Z,100175.22
2022-08-07T00:52:11.132Z,100178.59
2022-08-07T00:55:17.463Z,100172.84
2022-08-07T00:58:28.402Z,100174.53
2022-08-07T01:01:41.486Z,100172.56
2022-08-07T01:04:47.803Z,100179.34
2022-08-07T01:07:51.435Z,100170.66
2022-08-07T01:10:56.531Z,100170.56
2022-08-07T01:14:01.797Z,100171.56
2022-08-07T01:17:07.297Z,100169.37
2022-08-07T01:20:17.149Z,100167.72
2022-08-07T01:23:21.114Z,100171.12
2022-08-07T01:26:38.927Z,100166.84
2022-08-07T01:29:43.078Z,100177.09
2022-08-07T01:32:46.049Z,100170.88
2022-08-07T01:35:53.686Z,100175.50
2022-08-07T01:38:59.060Z,100169.16
2022-08-07T01:42:37.066Z,100172.94
2022-08-07T01:45:37.032Z,100168.53
2022-08-07T01:48:47.504Z,100171.47
2022-08-07T01:52:02.656Z,100177.50
2022-08-07T01:55:10.852Z,100171.34
2022-08-07T01:58:33.175Z,100176.19
2022-08-07T02:02:02.761Z,100170.31
2022-08-07T02:05:15.966Z,100169.44
2022-08-07T02:08:42.368Z,100180.00
2022-08-07T02:12:04.254Z,100172.56
2022-08-07T02:15:10.324Z,100176.09
2022-08-07T02:18:14.954Z,100180.41
2022-08-07T02:21:22.363Z,100191.06
2022-08-07T02:24:26.119Z,100181.47
2022-08-07T02:27:34.838Z,100177.41
2022-08-07T02:30:39.596Z,100188.06
2022-08-07T02:34:01.896Z,100185.09
2022-08-07T02:37:10.506Z,100192.53
2022-08-07T02:40:30.996Z,100190.41
2022-08-07T02:43:41.133Z,100195.06
2022-08-07T02:46:52.545Z,100201.94
2022-08-07T02:50:05.344Z,100202.97
2022-08-07T02:53:15.239Z,100199.25
2022-08-07T02:56:22.450Z,100197.19
2022-08-07T02:59:27.785Z,100200.09
2022-08-07T03:02:33.886Z,100201.41
2022-08-07T03:05:38.823Z,100201.78
2022-08-07T03:08:44.946Z,100195.78
2022-08-07T03:11:52.596Z,100202.00
2022-08-07T03:15:07.515Z,100202.50
2022-08-07T03:18:17.553Z,100203.22
2022-08-07T03:21:24.519Z,100202.72
2022-08-07T03:24:28.441Z,100201.94
2022-08-07T03:27:59.074Z,100199.06
2022-08-07T03:31:16.898Z,100203.53
2022-08-07T03:34:22.122Z,100207.38
2022-08-07T03:37:28.430Z,100208.72
2022-08-07T03:40:37.454Z,100208.09
2022-08-07T03:43:57.107Z,100213.84
2022-08-07T03:47:11.031Z,100205.53
2022-08-07T03:50:23.040Z,100214.19
2022-08-07T03:54:01.662Z,100219.75
2022-08-07T03:57:03.561Z,100219.75
2022-08-07T04:00:12.191Z,100224.94
2022-08-07T04:03:18.227Z,100228.06
2022-08-07T04:06:38.089Z,100237.91
2022-08-07T04:09:50.447Z,100233.47
2022-08-07T04:12:55.496Z,100243.50
2022-08-07T04:15:59.165Z,100240.25
2022-08-07T04:19:12.739Z,100247.19
2022-08-07T04:22:19.646Z,100252.28
2022-08-07T04:25:29.109Z,100249.22
2022-08-07T04:28:34.736Z,100249.66
2022-08-07T04:32:03.313Z,100256.47
2022-08-07T04:35:07.172Z,100257.09
2022-08-07T04:38:15.508Z,100265.13
2022-08-07T04:41:19.195Z,100259.66
2022-08-07T04:44:23.889Z,100260.84
2022-08-07T04:47:56.989Z,100268.56
2022-08-07T04:51:32.175Z,100280.13
2022-08-07T04:54:52.712Z,100281.66
2022-08-07T04:58:31.613Z,100285.38
2022-08-07T05:01:58.562Z,100277.16
2022-08-07T05:05:53.929Z,100283.72
2022-08-07T05:09:10.883Z,100285.38
2022-08-07T05:12:27.228Z,100286.66
2022-08-07T05:15:39.156Z,100295.34
2022-08-07T05:19:02.110Z,100294.28
2022-08-07T05:22:08.547Z,100293.00
2022-08-07T05:25:25.752Z,100304.06
2022-08-07T05:28:48.762Z,100302.16
2022-08-07T05:31:55.860Z,100305.88
2022-08-07T05:35:03.521Z,100310.53
2022-08-07T05:38:11.887Z,100306.62
2022-08-07T05:41:18.356Z,100310.78
2022-08-07T05:44:29.535Z,100313.75
2022-08-07T05:47:38.271Z,100315.69
2022-08-07T05:51:01.162Z,100313.47
2022-08-07T05:54:09.488Z,100316.97
2022-08-07T05:57:37.794Z,100310.19
2022-08-07T06:00:46.354Z,100317.03
2022-08-07T06:03:58.630Z,100319.06
2022-08-07T06:07:06.088Z,100319.59
2022-08-07T06:10:15.361Z,100323.78
2022-08-07T06:14:10.897Z,100328.06
2022-08-07T06:16:50.725Z,100321.50
2022-08-07T06:20:03.974Z,100323.38
2022-08-07T06:23:46.826Z,100328.09
2022-08-07T06:26:33.696Z,100330.66
2022-08-07T06:29:38.838Z,100330.53
2022-08-07T06:32:44.686Z,100339.59
2022-08-07T06:36:13.025Z,100345.59
2022-08-07T06:40:15.756Z,100349.59
2022-08-07T06:42:43.395Z,100348.00
2022-08-07T06:45:50.568Z,100347.28
2022-08-07T06:48:57.094Z,100351.38
2022-08-07T06:52:07.561Z,100356.41
2022-08-07T06:55:32.639Z,100351.12
2022-08-07T07:00:12.146Z,100353.84
2022-08-07T07:02:48.943Z,100357.59
2022-08-07T07:06:02.626Z,100360.28
2022-08-07T07:09:31.083Z,100353.72
2022-08-07T07:12:48.535Z,100360.75
2022-08-07T07:16:01.063Z,100354.56
2022-08-07T07:19:11.528Z,100359.94
2022-08-07T07:22:36.639Z,100354.44
2022-08-07T07:26:32.254Z,100354.66
2022-08-07T07:29:39.147Z,100346.03
2022-08-07T07:32:47.047Z,100341.09
2022-08-07T07:36:05.241Z,100335.50
2022-08-07T07:39:17.488Z,100345.53
2022-08-07T07:42:25.796Z,100340.69
2022-08-07T07:46:37.635Z,100347.81
2022-08-07T07:49:09.109Z,100340.19
2022-08-07T07:52:30.233Z,100343.06
2022-08-07T07:55:37.775Z,100351.22
2022-08-07T07:58:50.617Z,100347.44
2022-08-07T08:02:03.651Z,100350.75
2022-08-07T08:05:14.449Z,100347.81
2022-08-07T08:08:35.776Z,100356.66
2022-08-07T08:11:59.149Z,100350.22
2022-08-07T08:15:07.096Z,100343.34
2022-08-07T08:18:17.392Z,100340.69
2022-08-07T08:21:55.673Z,100343.44
2022-08-07T08:25:27.050Z,100348.00
2022-08-07T08:28:46.165Z,100345.28
2022-08-07T08:31:58.609Z,100349.25
2022-08-07T08:35:19.467Z,100357.16
2022-08-07T08:38:41.253Z,100361.38
2022-08-07T08:42:00.362Z,100366.47
2022-08-07T08:45:58.892Z,100362.06
2022-08-07T08:49:33.009Z,100361.66
2022-08-07T08:52:54.284Z,100369.37
2022-08-07T08:56:08.570Z,100359.91
2022-08-07T08:59:17.830Z,100364.00
2022-08-07T09:02:37.748Z,100371.53
2022-08-07T09:06:04.165Z,100363.47
2022-08-07T09:09:21.128Z,100374.09
2022-08-07T09:12:33.084Z,100369.50
2022-08-07T09:16:20.494Z,100373.47
2022-08-07T09:19:53.503Z,100358.72
2022-08-07T09:24:34.198Z,100369.88
2022-08-07T09:27:08.981Z,100365.75
2022-08-07T09:30:14.066Z,100369.69
2022-08-07T09:33:40.928Z,100362.47
2022-08-07T09:37:13.112Z,100363.28
2022-08-07T09:40:25.545Z,100360.38
2022-08-07T09:44:05.525Z,100362.91
2022-08-07T09:47:49.987Z,100360.34
2022-08-07T09:52:10.450Z,100354.12
2022-08-07T09:54:46.903Z,100351.22
2022-08-07T09:58:11.580Z,100348.72
2022-08-07T10:01:51.276Z,100354.25
2022-08-07T10:05:13.885Z,100345.50
2022-08-07T10:08:49.459Z,100337.62
2022-08-07T10:12:21.816Z,100332.78
2022-08-07T10:15:49.827Z,100332.56
2022-08-07T10:19:17.893Z,100331.91
2022-08-07T10:22:43.281Z,100332.81
2022-08-07T10:26:24.611Z,100326.22
2022-08-07T10:30:12.430Z,100324.94
2022-08-07T10:34:06.797Z,100322.69
2022-08-07T10:38:00.669Z,100321.72
2022-08-07T10:41:45.998Z,100318.22
2022-08-07T10:45:45.422Z,100315.47
2022-08-07T10:49:16.548Z,100316.50
2022-08-07T10:52:54.600Z,100296.03
2022-08-07T10:56:20.957Z,100291.94
2022-08-07T11:00:04.151Z,100293.38
2022-08-07T11:03:17.233Z,100295.13
2022-08-07T11:06:30.948Z,100287.84
2022-08-07T11:10:07.187Z,100286.31
2022-08-07T11:14:46.242Z,100279.25
2022-08-07T11:17:01.929Z,100274.66
2022-08-07T11:20:17.050Z,100269.06
2022-08-07T11:23:38.714Z,100273.19
2022-08-07T11:26:55.874Z,100263.44
2022-08-07T11:30:17.544Z,100260.63
2022-08-07T11:33:54.244Z,100262.09
2022-08-07T11:37:12.859Z,100247.78
2022-08-07T11:40:41.177Z,100253.91
2022-08-07T11:44:18.433Z,100253.28
2022-08-07T11:47:39.126Z,100241.91
2022-08-07T11:51:09.833Z,100247.25
2022-08-07T11:54:55.666Z,100243.69
2022-08-07T11:58:16.269Z,100240.69
2022-08-07T12:02:17.745Z,100231.47
2022-08-07T12:05:41.466Z,100235.31
2022-08-07T12:09:23.418Z,100221.69
2022-08-07T12:12:36.560Z,100221.62
2022-08-07T12:16:05.942Z,100225.78
2022-08-07T12:19:21.209Z,100219.84
2022-08-07T12:22:47.277Z,100217.13
2022-08-07T12:26:23.381Z,100212.94
2022-08-07T12:29:44.437Z,100206.28
2022-08-07T12:33:01.997Z,100203.63
2022-08-07T12:36:17.583Z,100209.87
2022-08-07T12:39:42.332Z,100201.38
2022-08-07T12:42:55.159Z,100202.72
2022-08-07T12:46:12.228Z,100189.69
2022-08-07T12:49:48.559Z,100176.31
2022-08-07T12:53:17.686Z,100179.50
2022-08-07T12:56:39.570Z,100179.87
2022-08-07T12:59:54.868Z,100178.47
2022-08-07T13:03:26.948Z,100179.56
2022-08-07T13:06:54.317Z,100172.19
2022-08-07T13:10:39.231Z,100173.00
2022-08-07T13:14:03.181Z,100175.06
2022-08-07T13:17:40.004Z,100171.84
2022-08-07T13:20:59.126Z,100172.16
2022-08-07T13:24:11.476Z,100174.84
2022-08-07T13:27:21.369Z,100168.03
2022-08-07T13:30:40.544Z,100170.75
2022-08-07T13:34:30.879Z,100169.25
2022-08-07T13:37:38.352Z,100167.19
2022-08-07T13:41:17.344Z,100165.38
2022-08-07T13:44:34.484Z,100159.97
2022-08-07T13:48:07.613Z,100161.78
2022-08-07T13:51:26.984Z,100145.44
2022-08-07T13:54:33.407Z,100150.91
2022-08-07T13:57:40.260Z,100144.88
2022-08-07T14:01:20.409Z,100140.69
2022-08-07T14:04:29.682Z,100128.41
2022-08-07T14:08:00.231Z,100128.91
2022-08-07T14:11:15.108Z,100132.69
2022-08-07T14:14:28.440Z,100127.84
2022-08-07T14:18:15.936Z,100128.78
2022-08-07T14:21:21.181Z,100123.06
2022-08-07T14:24:41.662Z,100117.78
2022-08-07T14:28:12.173Z,100116.94
2022-08-07T14:31:13.895Z,100112.03
2022-08-07T14:34:27.171Z,100120.72
2022-08-07T14:37:39.085Z,100114.47
2022-08-07T14:40:49.447Z,100112.06
2022-08-07T14:43:58.902Z,100103.66
2022-08-07T14:47:16.438Z,100111.25
2022-08-07T14:50:22.620Z,100103.62
2022-08-07T14:54:05.959Z,100096.81
2022-08-07T14:56:58.707Z,100101.37
2022-08-07T15:00:09.013Z,100101.09
2022-08-07T15:03:19.130Z,100096.31
2022-08-07T15:06:25.960Z,100089.03
2022-08-07T15:13:05.673Z,100078.94
2022-08-07T15:16:14.680Z,100079.75
2022-08-07T15:20:30.984Z,100079.78
2022-08-07T15:22:53.999Z,100076.00
2022-08-07T15:25:59.002Z,100082.56
2022-08-07T15:30:08.694Z,100069.06
2022-08-07T15:32:39.866Z,100074.66
2022-08-07T15:39:24.608Z,100075.00
2022-08-07T15:46:32.284Z,100061.59
2022-08-07T15:53:14.518Z,100060.22
2022-08-07T15:56:19.762Z,100057.34
2022-08-07T15:59:39.736Z,100053.84
2022-08-07T16:02:53.625Z,100065.28
2022-08-07T16:05:59.460Z,100055.88
2022-08-07T16:09:12.708Z,100057.75
2022-08-07T16:13:01.115Z,100061.44
2022-08-07T16:16:42.906Z,100056.12
2022-08-07T16:20:03.825Z,100049.00
2022-08-07T16:23:53.125Z,100047.91
2022-08-07T16:27:01.168Z,100045.66
2022-08-07T16:30:30.767Z,100045.44
2022-08-07T16:34:07.412Z,100053.47
2022-08-07T16:38:09.234Z,100059.19
2022-08-07T16:40:57.137Z,100054.44
2022-08-07T16:44:53.759Z,100051.72
2022-08-07T16:47:51.627Z,100056.00
2022-08-07T16:52:01.989Z,100054.44
2022-08-07T16:55:03.129Z,100049.63
2022-08-07T16:59:02.429Z,100053.91
2022-08-07T17:02:51.486Z,100050.44
2022-08-07T17:06:41.089Z,100049.06
2022-08-07T17:10:32.596Z,100053.81
2022-08-07T17:14:18.055Z,100056.72
2022-08-07T17:17:23.587Z,100048.81
2022-08-07T17:20:37.960Z,100057.13
2022-08-07T17:23:53.611Z,100060.03
2022-08-07T17:27:08.820Z,100062.84
2022-08-07T17:30:20.083Z,100067.84
2022-08-07T17:34:08.678Z,100054.84
2022-08-07T17:38:06.077Z,100056.50
2022-08-07T17:40:42.748Z,100057.91
2022-08-07T17:44:08.317Z,100058.03
2022-08-07T17:47:38.224Z,100066.88
2022-08-07T17:51:01.554Z,100066.50
2022-08-07T17:54:29.875Z,100072.66
2022-08-07T17:57:58.473Z,100069.56
2022-08-07T18:01:21.244Z,100076.31
2022-08-07T18:04:34.556Z,100076.31
2022-08-07T18:07:43.789Z,100078.06
2022-08-07T18:12:06.193Z,100091.66
2022-08-07T18:14:45.110Z,100100.28
2022-08-07T18:18:46.658Z,100130.25
2022-08-07T18:22:02.743Z,100128.44
2022-08-07T18:25:19.129Z,100127.88
2022-08-07T18:28:58.638Z,100132.19
2022-08-07T18:32:17.209Z,100143.53
2022-08-07T18:36:06.024Z,100135.75
2022-08-07T18:40:05.152Z,100153.47
2022-08-07T18:42:50.115Z,100140.66
2022-08-07T18:46:25.947Z,100144.88
2022-08-07T18:50:32.679Z,100155.13
2022-08-07T18:53:18.709Z,100161.91
2022-08-07T18:57:23.448Z,100164.66
2022-08-07T19:00:34.095Z,100164.06
2022-08-07T19:04:00.227Z,100175.22
2022-08-07T19:07:10.971Z,100172.28
2022-08-07T19:10:22.873Z,100172.41
2022-08-07T19:13:56.603Z,100178.63
2022-08-07T19:17:11.601Z,100178.34
2022-08-07T19:20:29.683Z,100181.16
2022-08-07T19:23:58.287Z,100178.84
2022-08-07T19:28:29.161Z,100192.87
2022-08-07T19:31:06.042Z,100196.87
2022-08-07T19:34:14.669Z,100189.37
2022-08-07T19:37:56.447Z,100206.72
2022-08-07T19:41:00.778Z,100207.09
2022-08-07T19:44:04.852Z,100217.34
2022-08-07T19:47:36.367Z,100210.06
2022-08-07T19:50:45.678Z,100211.53
2022-08-07T19:54:34.783Z,100217.81
2022-08-07T19:58:01.975Z,100221.53
2022-08-07T20:00:57.811Z,100220.03
2022-08-07T20:04:01.496Z,100225.47
2022-08-07T20:07:09.062Z,100232.53
2022-08-07T20:10:35.534Z,100231.50
2022-08-07T20:13:49.901Z,100227.94
2022-08-07T20:16:58.595Z,100228.78
2022-08-07T20:20:05.393Z,100225.47
2022-08-07T20:23:22.908Z,100219.00
2022-08-07T20:26:45.262Z,100225.25
2022-08-07T20:30:00.059Z,100230.41
2022-08-07T20:33:09.132Z,100232.91
2022-08-07T20:36:32.250Z,100231.41
2022-08-07T20:40:03.035Z,100231.75
2022-08-07T20:43:03.623Z,100237.09
2022-08-07T20:46:27.635Z,100241.66
2022-08-07T20:49:59.782Z,100236.00
2022-08-07T20:53:05.733Z,100227.91
2022-08-07T20:56:10.523Z,100238.22
2022-08-07T21:00:04.484Z,100229.28
2022-08-07T21:02:58.742Z,100235.62
2022-08-07T21:06:21.823Z,100244.03
2022-08-07T21:09:52.845Z,100246.53
2022-08-07T21:13:05.098Z,100250.28
2022-08-07T21:16:12.381Z,100247.84
2022-08-07T21:19:19.421Z,100247.56
2022-08-07T21:22:28.262Z,100249.53
2022-08-07T21:25:50.144Z,100252.50
2022-08-07T21:29:07.174Z,100266.56
2022-08-07T21:32:47.368Z,100262.53
2022-08-07T21:36:31.493Z,100251.84
2022-08-07T21:40:13.787Z,100264.75
2022-08-07T21:43:24.783Z,100272.56
2022-08-07T21:47:04.723Z,100272.81
2022-08-07T21:50:39.228Z,100276.25
2022-08-07T21:53:53.005Z,100288.44
2022-08-07T21:57:31.155Z,100290.97
2022-08-07T22:00:50.121Z,100289.50
2022-08-07T22:04:07.505Z,100286.34
2022-08-07T22:07:20.493Z,100290.63
2022-08-07T22:10:33.726Z,100288.41
2022-08-07T22:13:51.927Z,100297.03
2022-08-07T22:17:00.741Z,100293.72
2022-08-07T22:20:22.707Z,100299.25
2022-08-07T22:23:40.406Z,100298.31
2022-08-07T22:27:51.192Z,100292.31
2022-08-07T22:31:06.790Z,100299.19
2022-08-07T22:34:15.517Z,100311.34
2022-08-07T22:38:01.671Z,100302.56
2022-08-07T22:41:14.265Z,100303.38
2022-08-07T22:44:26.111Z,100297.63
2022-08-07T22:47:38.262Z,100293.91
2022-08-07T22:50:54.076Z,100293.91
2022-08-07T22:54:35.682Z,100294.66
2022-08-07T22:57:54.592Z,100306.25
2022-08-07T23:01:49.614Z,100307.66
2022-08-07T23:06:15.257Z,100312.00
2022-08-07T23:10:06.338Z,100308.41
2022-08-07T23:13:15.365Z,100312.28
2022-08-07T23:17:05.533Z,100313.78
2022-08-07T23:20:51.258Z,100318.13
2022-08-07T23:24:18.500Z,100317.66
2022-08-07T23:27:34.109Z,100321.72
2022-08-07T23:31:06.586Z,100319.97
2022-08-07T23:34:37.380Z,100312.00
2022-08-07T23:38:19.493Z,100314.03
2022-08-07T23:42:04.546Z,100318.97
2022-08-07T23:45:33.006Z,100325.81
2022-08-07T23:48:56.253Z,100326.81
2022-08-07T23:53:06.431Z,100324.53
2022-08-07T23:55:55.768Z,100322.19
